EDDR 261150Z VRB04KT CAVOK 32/19 Q1018 NOSIG EDDR 261120Z VRB04KT CAVOK 31/20 Q1018 NOSIG EDDR 261050Z 24004KT 150V300 CAVOK 30/18 Q1018 NOSIG EDDR 261020Z 20004KT 110V280 CAVOK 30/21 Q1018 NOSIG EDDR 260950Z VRB03KT CAVOK 29/19 Q1018 NOSIG EDDR 260920Z VRB04KT CAVOK 27/18 Q1018 NOSIG EDDR 260850Z 22004KT 170V280 CAVOK 27/19 Q1018 NOSIG EDDR 260820Z 21005KT 170V280 CAVOK 25/18 Q1018 NOSIG EDDR 260750Z 20007KT 170V230 CAVOK 24/18 Q1018 NOSIG EDDR 260720Z 20005KT 160V240 CAVOK 24/18 Q1018 NOSIG EDDR 260650Z VRB02KT CAVOK 23/18 Q1018 NOSIG EDDR 260620Z 08002KT CAVOK 21/19 Q1018 NOSIG EDDR 260550Z VRB02KT CAVOK 20/18 Q1017 NOSIG EDDR 260520Z 12001KT CAVOK 18/17 Q1017 NOSIG EDDR 260450Z 08003KT CAVOK 17/16 Q1017 NOSIG EDDR 260420Z 08002KT CAVOK 17/15 Q1017 NOSIG EDDR 260350Z 08003KT CAVOK 17/15 Q1017 NOSIG EDDR 260320Z 10003KT CAVOK 17/15 Q1017 EDDR 260250Z VRB02KT CAVOK 18/15 Q1017 EDDR 260220Z 08001KT CAVOK 18/16 Q1017 EDDR 260150Z 08002KT CAVOK 18/15 Q1017 EDDR 260120Z AUTO 08003KT CAVOK 19/16 Q1016 EDDR 260050Z AUTO 07004KT CAVOK 19/15 Q1016 EDDR 260020Z AUTO 11002KT CAVOK 19/16 Q1016 EDDR 252350Z AUTO VRB01KT CAVOK 19/15 Q1016 EDDR 252320Z AUTO 09003KT CAVOK 20/16 Q1016 EDDR 252250Z AUTO VRB01KT CAVOK 20/16 Q1016 EDDR 252220Z AUTO 06002KT CAVOK 20/15 Q1016 EDDR 252150Z 06002KT CAVOK 21/15 Q1016 EDDR 252120Z 08003KT CAVOK 21/15 Q1016 NOSIG EDDR 252050Z 08003KT CAVOK 21/15 Q1017 NOSIG EDDR 252020Z 10004KT CAVOK 22/14 Q1017 NOSIG EDDR 251950Z 10004KT CAVOK 23/15 Q1017 NOSIG EDDR 251920Z 08004KT CAVOK 23/14 Q1017 NOSIG EDDR 251850Z 10003KT CAVOK 24/15 Q1016 NOSIG EDDR 251820Z 10003KT CAVOK 27/14 Q1016 NOSIG EDDR 251750Z 11003KT CAVOK 28/14 Q1016 NOSIG EDDR 251720Z 09004KT CAVOK 30/15 Q1016 NOSIG EDDR 251650Z 10004KT CAVOK 30/15 Q1016 NOSIG EDDR 251620Z 11004KT 060V160 CAVOK 31/14 Q1016 NOSIG EDDR 251550Z 12005KT 070V170 CAVOK 31/15 Q1016 NOSIG EDDR 251520Z 13005KT 070V200 CAVOK 32/14 Q1017 NOSIG EDDR 251450Z 12005KT 060V150 CAVOK 32/15 Q1017 NOSIG EDDR 251420Z 19004KT 130V250 CAVOK 31/14 Q1017 NOSIG EDDR 251350Z 13005KT 070V200 CAVOK 31/15 Q1017 NOSIG EDDR 251320Z 16005KT 100V240 CAVOK 31/14 Q1017 NOSIG EDDR 251250Z VRB04KT CAVOK 31/15 Q1018 NOSIG EDDR 251220Z 17006KT 080V240 CAVOK 30/14 Q1018 NOSIG EDDR 251150Z 15005KT 050V210 CAVOK 30/15 Q1018 NOSIG EDDR 251120Z 16007KT 120V220 CAVOK 29/15 Q1018 NOSIG EDDR 251050Z 10006KT 050V150 CAVOK 28/15 Q1018 NOSIG EDDR 251020Z 10007KT 050V140 CAVOK 27/15 Q1018 NOSIG EDDR 250950Z 09007KT 050V130 CAVOK 26/16 Q1018 NOSIG EDDR 250920Z 10006KT 070V140 CAVOK 25/15 Q1019 NOSIG EDDR 250850Z 09005KT 050V160 CAVOK 24/15 Q1019 NOSIG EDDR 250820Z 08006KT CAVOK 23/15 Q1019 NOSIG EDDR 250750Z 09007KT 060V120 CAVOK 22/15 Q1019 NOSIG EDDR 250720Z 08008KT CAVOK 21/15 Q1019 NOSIG EDDR 250650Z 06008KT CAVOK 20/15 Q1019 NOSIG EDDR 250620Z 07009KT CAVOK 20/15 Q1018 NOSIG EDDR 250550Z 06007KT CAVOK 19/14 Q1019 NOSIG EDDR 250520Z 06008KT CAVOK 18/14 Q1019 NOSIG EDDR 250450Z 05008KT CAVOK 17/14 Q1019 NOSIG EDDR 250420Z 06008KT CAVOK 17/14 Q1019 NOSIG EDDR 250350Z 05009KT CAVOK 17/14 Q1019 NOSIG EDDR 250320Z 04005KT 350V070 CAVOK 18/14 Q1019 EDDR 250250Z 07007KT CAVOK 18/14 Q1019 EDDR 250220Z 06006KT CAVOK 19/14 Q1019 EDDR 250150Z 07007KT CAVOK 19/14 Q1019 EDDR 250120Z AUTO 08007KT 040V100 CAVOK 19/14 Q1019 EDDR 250050Z AUTO 07006KT CAVOK 20/14 Q1019 EDDR 250020Z AUTO 06007KT CAVOK 19/14 Q1019

METAR Messwerte

Zurück zur Übersicht

Ort
m ü. NN
Zeit Temperatur Taupunkt Rel.
Luftfeuchte
Luftdruck:
Altimeter
NN
Station
Wind in Beaufort
(Knoten)
Sichtweite
(Meter)
Wolken
(Meter über Grund)
Wettererscheinung
Saarbrücken/Ensheim
320
Fr 26.08. 13:50321946 %1018
1016
980
Uml 2 (4)>= 10000Nicht signifikant 
Saarbrücken/Ensheim
320
Fr 26.08. 13:20312052 %1018
1016
980
Uml 2 (4)>= 10000Nicht signifikant 
Saarbrücken/Ensheim
320
Fr 26.08. 12:50301849 %1018
1016
980
WSW 2 (4)
SSO - WNW
>= 10000Nicht signifikant 
Saarbrücken/Ensheim
320
Fr 26.08. 12:20302159 %1018
1016
980
SSW 2 (4)
OSO - W
>= 10000Nicht signifikant 
Saarbrücken/Ensheim
320
Fr 26.08. 11:50291955 %1018
1016
980
Uml 2 (3)>= 10000Nicht signifikant 
Saarbrücken/Ensheim
320
Fr 26.08. 11:20271858 %1018
1016
980
Uml 2 (4)>= 10000Nicht signifikant 
Saarbrücken/Ensheim
320
Fr 26.08. 10:50271962 %1018
1016
980
SW 2 (4)
S - W
>= 10000Nicht signifikant 
Saarbrücken/Ensheim
320
Fr 26.08. 10:20251865 %1018
1017
980
SSW 2 (5)
S - W
>= 10000Nicht signifikant 
Saarbrücken/Ensheim
320
Fr 26.08. 09:50241869 %1018
1017
980
SSW 3 (7)
S - SW
>= 10000Nicht signifikant 
Saarbrücken/Ensheim
320
Fr 26.08. 09:20241869 %1018
1017
980
SSW 2 (5)
SSO - WSW
>= 10000Nicht signifikant 
Saarbrücken/Ensheim
320
Fr 26.08. 08:50231873 %1018
1017
980
Uml 1 (2)>= 10000Nicht signifikant 
Saarbrücken/Ensheim
320
Fr 26.08. 08:20211988 %1018
1017
980
O 1 (2)>= 10000Nicht signifikant 
Saarbrücken/Ensheim
320
Fr 26.08. 07:50201888 %1017
1016
979
Uml 1 (2)>= 10000Nicht signifikant 
Saarbrücken/Ensheim
320
Fr 26.08. 07:20181794 %1017
1017
979
OSO 1 (1)>= 10000Nicht signifikant 
Saarbrücken/Ensheim
320
Fr 26.08. 06:50171694 %1017
1017
979
O 2 (3)>= 10000Nicht signifikant 
Saarbrücken/Ensheim
320
Fr 26.08. 06:20171588 %1017
1017
979
O 1 (2)>= 10000Nicht signifikant 
Saarbrücken/Ensheim
320
Fr 26.08. 05:50171588 %1017
1017
979
O 2 (3)>= 10000Nicht signifikant 
Saarbrücken/Ensheim
320
Fr 26.08. 05:20171588 %1017
1017
979
O 2 (3)>= 10000Nicht signifikant 
Saarbrücken/Ensheim
320
Fr 26.08. 04:50181583 %1017
1017
979
Uml 1 (2)>= 10000Nicht signifikant 
Saarbrücken/Ensheim
320
Fr 26.08. 04:20181688 %1017
1017
979
O 1 (1)>= 10000Nicht signifikant 
Saarbrücken/Ensheim
320
Fr 26.08. 03:50181583 %1017
1017
979
O 1 (2)>= 10000Nicht signifikant 
Saarbrücken/Ensheim
320
Fr 26.08. 03:20191683 %1016
1015
978
O 2 (3)>= 10000Nicht signifikant 
Saarbrücken/Ensheim
320
Fr 26.08. 02:50191578 %1016
1015
978
ONO 2 (4)>= 10000Nicht signifikant 
Saarbrücken/Ensheim
320
Fr 26.08. 02:20191683 %1016
1015
978
OSO 1 (2)>= 10000Nicht signifikant 
Saarbrücken/Ensheim
320
Fr 26.08. 01:50191578 %1016
1015
978
Uml 1 (1)>= 10000Nicht signifikant 
Saarbrücken/Ensheim
320
Fr 26.08. 01:20201678 %1016
1015
978
O 2 (3)>= 10000Nicht signifikant 
Saarbrücken/Ensheim
320
Fr 26.08. 00:50201678 %1016
1015
978
Uml 1 (1)>= 10000Nicht signifikant 
Saarbrücken/Ensheim
320
Fr 26.08. 00:20201573 %1016
1015
978
ONO 1 (2)>= 10000Nicht signifikant 
Saarbrücken/Ensheim
320
Do 25.08. 23:50211569 %1016
1015
978
ONO 1 (2)>= 10000Nicht signifikant 
Saarbrücken/Ensheim
320
Do 25.08. 23:20211569 %1016
1015
978
O 2 (3)>= 10000Nicht signifikant 
Saarbrücken/Ensheim
320
Do 25.08. 22:50211569 %1017
1016
979
O 2 (3)>= 10000Nicht signifikant 
Saarbrücken/Ensheim
320
Do 25.08. 22:20221460 %1017
1016
979
O 2 (4)>= 10000Nicht signifikant 
Saarbrücken/Ensheim
320
Do 25.08. 21:50231561 %1017
1016
979
O 2 (4)>= 10000Nicht signifikant 
Saarbrücken/Ensheim
320
Do 25.08. 21:20231457 %1017
1016
979
O 2 (4)>= 10000Nicht signifikant 
Saarbrücken/Ensheim
320
Do 25.08. 20:50241557 %1016
1015
978
O 2 (3)>= 10000Nicht signifikant 
Saarbrücken/Ensheim
320
Do 25.08. 20:20271445 %1016
1014
978
O 2 (3)>= 10000Nicht signifikant 
Saarbrücken/Ensheim
320
Do 25.08. 19:50281442 %1016
1014
978
OSO 2 (3)>= 10000Nicht signifikant 
Saarbrücken/Ensheim
320
Do 25.08. 19:20301540 %1016
1014
978
O 2 (4)>= 10000Nicht signifikant 
Saarbrücken/Ensheim
320
Do 25.08. 18:50301540 %1016
1014
978
O 2 (4)>= 10000Nicht signifikant 
Saarbrücken/Ensheim
320
Do 25.08. 18:20311436 %1016
1014
978
OSO 2 (4)
ONO - SSO
>= 10000Nicht signifikant 
Saarbrücken/Ensheim
320
Do 25.08. 17:50311538 %1016
1014
978
OSO 2 (5)
ONO - S
>= 10000Nicht signifikant 
Saarbrücken/Ensheim
320
Do 25.08. 17:20321434 %1017
1015
979
SO 2 (5)
ONO - SSW
>= 10000Nicht signifikant 
Saarbrücken/Ensheim
320
Do 25.08. 16:50321536 %1017
1015
979
OSO 2 (5)
ONO - SSO
>= 10000Nicht signifikant 
Saarbrücken/Ensheim
320
Do 25.08. 16:20311436 %1017
1015
979
S 2 (4)
SO - WSW
>= 10000Nicht signifikant 
Saarbrücken/Ensheim
320
Do 25.08. 15:50311538 %1017
1015
979
SO 2 (5)
ONO - SSW
>= 10000Nicht signifikant 
Saarbrücken/Ensheim
320
Do 25.08. 15:20311436 %1017
1015
979
SSO 2 (5)
O - WSW
>= 10000Nicht signifikant 
Saarbrücken/Ensheim
320
Do 25.08. 14:50311538 %1018
1016
980
Uml 2 (4)>= 10000Nicht signifikant 
Saarbrücken/Ensheim
320
Do 25.08. 14:20301438 %1018
1016
980
S 2 (6)
O - WSW
>= 10000Nicht signifikant 
Saarbrücken/Ensheim
320
Do 25.08. 13:50301540 %1018
1016
980
SSO 2 (5)
NO - SSW
>= 10000Nicht signifikant 
Saarbrücken/Ensheim
320
Do 25.08. 13:20291543 %1018
1016
980
SSO 3 (7)
OSO - SW
>= 10000Nicht signifikant 
Saarbrücken/Ensheim
320
Do 25.08. 12:50281545 %1018
1016
980
O 2 (6)
NO - SSO
>= 10000Nicht signifikant 
Saarbrücken/Ensheim
320
Do 25.08. 12:20271548 %1018
1016
980
O 3 (7)
NO - SO
>= 10000Nicht signifikant 
Saarbrücken/Ensheim
320
Do 25.08. 11:50261654 %1018
1017
980
O 3 (7)
NO - SO
>= 10000Nicht signifikant 
Saarbrücken/Ensheim
320
Do 25.08. 11:20251554 %1019
1018
981
O 2 (6)
ONO - SO
>= 10000Nicht signifikant 
Saarbrücken/Ensheim
320
Do 25.08. 10:50241557 %1019
1018
981
O 2 (5)
NO - SSO
>= 10000Nicht signifikant 
Saarbrücken/Ensheim
320
Do 25.08. 10:20231561 %1019
1018
981
O 2 (6)>= 10000Nicht signifikant 
Saarbrücken/Ensheim
320
Do 25.08. 09:50221565 %1019
1018
981
O 3 (7)
ONO - OSO
>= 10000Nicht signifikant 
Saarbrücken/Ensheim
320
Do 25.08. 09:20211569 %1019
1018
981
O 3 (8)>= 10000Nicht signifikant 
Saarbrücken/Ensheim
320
Do 25.08. 08:50201573 %1019
1018
981
ONO 3 (8)>= 10000Nicht signifikant 
Saarbrücken/Ensheim
320
Do 25.08. 08:20201573 %1018
1017
980
ONO 3 (9)>= 10000Nicht signifikant 
Saarbrücken/Ensheim
320
Do 25.08. 07:50191473 %1019
1019
981
ONO 3 (7)>= 10000Nicht signifikant 
Saarbrücken/Ensheim
320
Do 25.08. 07:20181477 %1019
1019
981
ONO 3 (8)>= 10000Nicht signifikant 
Saarbrücken/Ensheim
320
Do 25.08. 06:50171482 %1019
1019
981
NO 3 (8)>= 10000Nicht signifikant 
Saarbrücken/Ensheim
320
Do 25.08. 06:20171482 %1019
1019
981
ONO 3 (8)>= 10000Nicht signifikant 
Saarbrücken/Ensheim
320
Do 25.08. 05:50171482 %1019
1019
981
NO 3 (9)>= 10000Nicht signifikant 
Saarbrücken/Ensheim
320
Do 25.08. 05:20181477 %1019
1019
981
NO 2 (5)
N - ONO
>= 10000Nicht signifikant 
Saarbrücken/Ensheim
320
Do 25.08. 04:50181477 %1019
1019
981
ONO 3 (7)>= 10000Nicht signifikant 
Saarbrücken/Ensheim
320
Do 25.08. 04:20191473 %1019
1019
981
ONO 2 (6)>= 10000Nicht signifikant 
Saarbrücken/Ensheim
320
Do 25.08. 03:50191473 %1019
1019
981
ONO 3 (7)>= 10000Nicht signifikant 
Saarbrücken/Ensheim
320
Do 25.08. 03:20191473 %1019
1019
981
O 3 (7)
NO - O
>= 10000Nicht signifikant 
Saarbrücken/Ensheim
320
Do 25.08. 02:50201468 %1019
1018
981
ONO 2 (6)>= 10000Nicht signifikant 
Saarbrücken/Ensheim
320
Do 25.08. 02:20191473 %1019
1019
981
ONO 3 (7)>= 10000Nicht signifikant 

Altimeter: Einstellung am Altimeter (Höhenmesser), die Höhe 0 muss auf diesen Luftdruckwert zeigen, damit das Gerät die Stationshöhe richtig anzeigt.

NN: Luftdruck reduziert auf "Normal Null", auf Meereshöhe, dieser von der Temperatur abhängige Wert wird bisweilen unkorrekt einfach als "Luftdruck" bezeichnet. Eigentlich nur eine fiktive Größe, die es erlaubt, Stationen auf unterschiedlichen Höhen miteinander zu vergleichen.

Station: Realer Luftdruck an der Station.